Hovedside
METAR-TAF:

METAR-TAF

Lufthavner :

Ciudad Obregón, Mexico

breddegrad: 27-24N, lengdegrad: 109-50W, høyde over havet: 62 m

Gjeldene værobservasjon

Denne rapporten ble laget for 2 timer og 0 minutter siden, klokken 01:43 UTC
Vind 10 kt fra Vest
Temperatur 35°C
Luftfuktighet 16%
Trykk 1001 hPa
Sikt: 16.1 km
Skyfri himmel

METAR: MMCN 200143Z 27010KT 10SM SKC 35/05 A2957 RMK HZY

Tid: 20:43 (03:43 UTC)

Varsel

Denne rapporten ble laget for 10 timer og 30 minutter siden, klokken 17:13 UTC
Varsel gyldig fra 19. klokken 18 UTC til 20. klokken 18 UTC
Vind 10 kt fra Vest-sørvest
Sikt: 10 km
Skyfri himmel
Fra 20. klokken 0200 UTC
Vind 5 kt fra Vest-sørvest
Sikt: 9.7 km
Skyfri himmel
dis
Fra 20. klokken 1800 UTC
Vind 10 kt fra Vest-sørvest
Sikt: 10 km
Skyfri himmel

TAF: MMCN 191713Z 1918/2018 24010KT P6SM SKC FM200200 24005KT 6SM HZ SKC FM201800 24010KT P6SM SKC

Værobservasjoner og værvarsel for over 4000 flyplasser (METAR- og TAF-rapporter).

Tilgjengelige stasjoner er representert av de røde og gule prikkene på kartet.

Hold musepekeren over prikken for å se navnet på stasjonen.

Klikk så for å se værobservasjoner og -varsler.

For å forandre kartet kan du klikke på den grønne knappen med svart kryss for å zoome inn, på den grønne knappen med strek for å zoome ut, eller på de grønne pilene for å se tilstøtende kart.


METAR-TAF: